Jandaira, Brazil
Current Conditions -  °F | °C
As of 5:00 AM on Monday 20 Oct 2014 (Local Time) from SBNT Reporting Station
Scattered Clouds Scattered Clouds  
Wind Chill: 75°   Ceiling: Unl
Heat Index: 75°   Visibility: 6mi
Dew Point: 66°   Wind: 9mph
Humidity: 73%   Direction: 170°S
Pressure: 29.91"   Gusts: NA
Location:  5.42°S, 36.05°W
Report Text: SBNT 200800Z 17008KT 9999 SCT017 SCT070 24/19 Q1013
Loading
Personal Weather Stations






























Interactive Weather Map
Tropical Storm Tracking
New forecast layout! Learn more

10-Day Weather Forecast

Advertisements
Track Severe Weather on mobile